Time;durP1;ratioP1;P1;durP2;ratioP2;P2;SDS_P1;SDS_P2;PMS_P1;PMS_P2;Temp;Humidity;BMP_temperature;BMP_pressure;BME280_temperature;BME280_humidity;BME280_pressure;Samples;Min_cycle;Max_cycle;Signal;HPM_P1;HPM_P2
2024/01/11 00:00:29;;;;;;;42.50;24.10;;;-2.90;99.90;;;;;;4966704;28;20060;-59
2024/01/11 00:02:54;;;;;;;42.70;22.50;;;-2.90;99.90;;;;;;4966572;28;20034;-59
2024/01/11 00:05:21;;;;;;;39.73;22.77;;;-2.90;99.90;;;;;;4965184;28;20038;-59
2024/01/11 00:07:48;;;;;;;37.97;21.93;;;-3.00;99.90;;;;;;4967840;28;20034;-59
2024/01/11 00:10:13;;;;;;;37.37;23.00;;;-3.00;99.90;;;;;;4968341;28;20592;-57
2024/01/11 00:12:39;;;;;;;42.60;23.93;;;-3.00;99.90;;;;;;4966576;28;20157;-59
2024/01/11 00:15:05;;;;;;;39.80;23.53;;;-3.00;99.90;;;;;;4959364;28;20132;-59
2024/01/11 00:17:31;;;;;;;41.80;22.60;;;-3.00;99.90;;;;;;4947666;28;20042;-59
2024/01/11 00:19:57;;;;;;;36.73;22.00;;;-3.00;99.90;;;;;;4964912;28;20969;-59
2024/01/11 00:22:22;;;;;;;39.13;22.47;;;-3.00;99.90;;;;;;4946994;28;20049;-59
2024/01/11 00:24:48;;;;;;;40.23;21.93;;;-3.00;99.90;;;;;;4970990;28;20043;-60
2024/01/11 00:27:14;;;;;;;40.77;22.93;;;-3.00;99.90;;;;;;4973178;28;20046;-59
2024/01/11 00:29:39;;;;;;;39.27;23.17;;;-3.00;99.90;;;;;;4980353;28;20093;-60
2024/01/11 00:32:05;;;;;;;39.20;22.53;;;-3.00;99.90;;;;;;4968427;28;20068;-58
2024/01/11 00:34:31;;;;;;;42.03;23.50;;;-3.00;99.90;;;;;;4964215;28;20139;-59
2024/01/11 00:36:57;;;;;;;43.00;23.97;;;-3.00;99.90;;;;;;4952957;28;20050;-58
2024/01/11 00:39:22;;;;;;;45.07;23.13;;;-3.00;99.90;;;;;;4984036;28;20046;-59
2024/01/11 00:41:48;;;;;;;41.43;22.60;;;-3.10;99.90;;;;;;4938844;28;20057;-59
2024/01/11 00:44:14;;;;;;;42.03;22.30;;;-3.10;99.90;;;;;;4978333;28;20047;-59
2024/01/11 00:46:40;;;;;;;37.20;21.13;;;-3.10;99.90;;;;;;4958510;28;20034;-58
2024/01/11 00:49:07;;;;;;;42.40;24.70;;;-3.10;99.90;;;;;;4963675;28;20042;-59
2024/01/11 00:51:32;;;;;;;45.30;24.10;;;-3.10;99.90;;;;;;4971328;28;20066;-59
2024/01/11 00:53:58;;;;;;;41.87;24.70;;;-3.10;99.90;;;;;;4973304;28;20125;-59
2024/01/11 00:56:24;;;;;;;45.17;24.47;;;-3.10;99.90;;;;;;4962475;28;20998;-59
2024/01/11 00:58:50;;;;;;;45.43;24.13;;;-3.10;99.90;;;;;;4973358;28;20033;-59
2024/01/11 01:01:15;;;;;;;45.33;24.53;;;-3.20;99.90;;;;;;4969597;28;20038;-59
2024/01/11 01:03:41;;;;;;;45.97;25.47;;;-3.20;99.90;;;;;;4996271;28;20560;-59
2024/01/11 01:06:07;;;;;;;45.93;24.93;;;-3.20;99.90;;;;;;4969424;28;20052;-59
2024/01/11 01:08:33;;;;;;;43.67;23.63;;;-3.20;99.90;;;;;;4967469;28;20038;-58
2024/01/11 01:10:58;;;;;;;46.80;25.00;;;-3.20;99.90;;;;;;4951625;28;20045;-59
2024/01/11 01:13:24;;;;;;;50.73;25.97;;;-3.20;99.90;;;;;;5004027;28;20512;-59
2024/01/11 01:15:50;;;;;;;42.53;24.43;;;-3.10;99.90;;;;;;4986346;28;20037;-59
2024/01/11 01:18:16;;;;;;;50.70;26.30;;;-3.10;99.90;;;;;;4973068;28;20272;-59
2024/01/11 01:20:41;;;;;;;48.87;24.87;;;-3.10;99.90;;;;;;4969096;28;20107;-58
2024/01/11 01:23:07;;;;;;;48.13;27.07;;;-3.20;99.90;;;;;;4959546;28;20050;-59
2024/01/11 01:25:33;;;;;;;46.20;25.50;;;-3.20;99.90;;;;;;4985541;28;20046;-59
2024/01/11 01:28:00;;;;;;;45.17;25.33;;;-3.20;99.90;;;;;;4973726;28;20042;-59
2024/01/11 01:30:29;;;;;;;46.53;25.43;;;-3.20;99.90;;;;;;4957726;28;20134;-59
2024/01/11 01:32:54;;;;;;;45.70;25.57;;;-3.20;99.90;;;;;;4981974;28;20038;-59
2024/01/11 01:35:20;;;;;;;46.17;25.03;;;-3.30;99.90;;;;;;4969222;28;20068;-59
2024/01/11 01:37:46;;;;;;;43.63;25.30;;;-3.30;99.90;;;;;;4997339;28;20120;-59
2024/01/11 01:40:12;;;;;;;46.10;26.60;;;-3.30;99.90;;;;;;4971820;28;20038;-59
2024/01/11 01:42:48;;;;;;;43.70;25.87;;;-3.30;99.90;;;;;;4976931;28;20422;-59
2024/01/11 01:45:15;;;;;;;45.37;24.83;;;-3.30;99.90;;;;;;4961155;28;20056;-60
2024/01/11 01:47:42;;;;;;;48.43;26.33;;;-3.30;99.90;;;;;;4949330;28;20054;-60
2024/01/11 01:50:10;;;;;;;47.07;25.57;;;-3.30;99.90;;;;;;4950202;28;20049;-60
2024/01/11 01:52:37;;;;;;;42.40;24.93;;;-3.30;99.90;;;;;;4992843;28;20121;-60
2024/01/11 01:55:05;;;;;;;51.80;26.37;;;-3.30;99.90;;;;;;4969519;28;20400;-59
2024/01/11 01:57:33;;;;;;;49.33;27.37;;;-3.30;99.90;;;;;;4964227;28;20092;-59
2024/01/11 02:00:00;;;;;;;45.27;25.87;;;-3.30;99.90;;;;;;4992100;28;20057;-60
2024/01/11 02:02:30;;;;;;;46.20;26.70;;;-3.30;99.90;;;;;;4966473;28;20512;-59
2024/01/11 02:04:56;;;;;;;50.23;25.97;;;-3.30;99.90;;;;;;4979948;28;20499;-59
2024/01/11 02:07:23;;;;;;;47.63;26.37;;;-3.30;99.90;;;;;;4965885;28;20524;-59
2024/01/11 02:09:49;;;;;;;42.47;24.20;;;-3.30;99.90;;;;;;4974546;28;20042;-59
2024/01/11 02:12:15;;;;;;;49.83;26.40;;;-3.30;99.90;;;;;;4959699;28;20053;-59
2024/01/11 02:14:41;;;;;;;43.47;24.03;;;-3.30;99.90;;;;;;4978948;28;20050;-59
2024/01/11 02:17:07;;;;;;;45.80;25.63;;;-3.30;99.90;;;;;;5048257;28;20117;-59
2024/01/11 02:19:36;;;;;;;46.90;25.60;;;-3.40;99.90;;;;;;4966778;28;20378;-58
2024/01/11 02:22:10;;;;;;;49.43;26.57;;;-3.40;99.90;;;;;;4959899;28;20393;-59
2024/01/11 02:24:36;;;;;;;48.97;26.23;;;-3.40;99.90;;;;;;5051202;28;20164;-59
2024/01/11 02:27:04;;;;;;;45.53;24.50;;;-3.40;99.90;;;;;;4956699;28;20141;-59
2024/01/11 02:29:31;;;;;;;46.33;25.50;;;-3.50;99.90;;;;;;4966146;28;20054;-59
2024/01/11 02:31:58;;;;;;;48.50;25.63;;;-3.40;99.90;;;;;;4982685;28;20040;-60
2024/01/11 02:34:25;;;;;;;51.43;27.33;;;-3.50;99.90;;;;;;4963190;28;20054;-59
2024/01/11 02:36:52;;;;;;;45.53;24.03;;;-3.50;99.90;;;;;;4977927;28;20048;-59
2024/01/11 02:39:19;;;;;;;49.23;25.43;;;-3.50;99.90;;;;;;4963640;28;20116;-60
2024/01/11 02:41:45;;;;;;;45.73;24.73;;;-3.50;99.90;;;;;;4968620;28;20199;-59
2024/01/11 02:44:11;;;;;;;46.10;25.00;;;-3.50;99.90;;;;;;4967660;28;20125;-59
2024/01/11 02:46:36;;;;;;;47.27;26.07;;;-3.50;99.90;;;;;;4963989;28;20042;-60
2024/01/11 02:49:02;;;;;;;47.23;24.53;;;-3.40;99.90;;;;;;4979245;28;20096;-59
2024/01/11 02:51:28;;;;;;;47.37;25.33;;;-3.50;99.90;;;;;;4967009;28;20684;-59
2024/01/11 02:53:53;;;;;;;49.20;26.40;;;-3.50;99.90;;;;;;4985623;28;20047;-60
2024/01/11 02:56:19;;;;;;;48.33;26.43;;;-3.50;99.90;;;;;;4958330;28;20161;-59
2024/01/11 02:58:45;;;;;;;50.33;25.97;;;-3.50;99.90;;;;;;4987486;28;20054;-59
2024/01/11 03:01:11;;;;;;;49.43;25.77;;;-3.50;99.90;;;;;;4982862;28;20035;-58
2024/01/11 03:03:36;;;;;;;47.00;25.23;;;-3.50;99.90;;;;;;4977359;28;20074;-59
2024/01/11 03:06:03;;;;;;;49.33;27.57;;;-3.60;99.90;;;;;;4952092;28;20030;-59
2024/01/11 03:08:28;;;;;;;47.13;25.10;;;-3.60;99.90;;;;;;4951829;28;20053;-59
2024/01/11 03:10:54;;;;;;;49.30;25.57;;;-3.60;99.90;;;;;;4967114;28;20042;-59
2024/01/11 03:13:20;;;;;;;50.87;26.07;;;-3.60;99.90;;;;;;4946976;28;20070;-59
2024/01/11 03:15:46;;;;;;;50.73;27.20;;;-3.60;99.90;;;;;;4982981;28;20042;-59
2024/01/11 03:18:12;;;;;;;46.97;25.23;;;-3.60;99.90;;;;;;5045199;28;20192;-58
2024/01/11 03:20:37;;;;;;;52.17;26.87;;;-3.60;99.90;;;;;;4970601;28;20111;-59
2024/01/11 03:23:03;;;;;;;47.27;26.37;;;-3.60;99.90;;;;;;4977733;28;20408;-59
2024/01/11 03:25:32;;;;;;;51.30;26.53;;;-3.70;99.90;;;;;;4986802;28;20511;-60
2024/01/11 03:27:58;;;;;;;51.00;26.97;;;-3.70;99.90;;;;;;4964662;28;20649;-59
2024/01/11 03:30:24;;;;;;;48.70;25.83;;;-3.70;99.90;;;;;;4951000;28;20038;-59
2024/01/11 03:32:50;;;;;;;45.10;23.97;;;-3.70;99.90;;;;;;4969637;28;20401;-59
2024/01/11 03:35:17;;;;;;;54.50;26.90;;;-3.70;99.90;;;;;;4957142;28;20074;-59
2024/01/11 03:37:46;;;;;;;49.03;26.00;;;-3.70;99.90;;;;;;4988716;28;20034;-59
2024/01/11 03:40:11;;;;;;;50.30;25.57;;;-3.70;99.90;;;;;;4982651;28;20497;-59
2024/01/11 03:42:37;;;;;;;49.30;25.63;;;-3.70;99.90;;;;;;4967532;28;20039;-59
2024/01/11 03:45:04;;;;;;;50.80;25.70;;;-3.70;99.90;;;;;;4965739;28;20139;-60
2024/01/11 03:47:30;;;;;;;47.60;25.70;;;-3.70;99.90;;;;;;4987104;28;20125;-59
2024/01/11 03:49:55;;;;;;;50.03;25.83;;;-3.70;99.90;;;;;;4971027;28;20127;-59
2024/01/11 03:52:21;;;;;;;49.93;27.23;;;-3.70;99.90;;;;;;4984313;28;20044;-59
2024/01/11 03:54:48;;;;;;;47.63;26.30;;;-3.70;99.90;;;;;;4985221;28;20078;-59
2024/01/11 03:57:14;;;;;;;49.40;26.57;;;-3.70;99.90;;;;;;4960100;28;20421;-60
2024/01/11 03:59:40;;;;;;;52.20;26.90;;;-3.70;99.90;;;;;;4971748;28;20030;-59
2024/01/11 04:02:07;;;;;;;52.37;26.20;;;-3.70;99.90;;;;;;4963423;28;20232;-59
2024/01/11 04:04:33;;;;;;;50.00;25.73;;;-3.70;99.90;;;;;;4982656;28;20053;-59
2024/01/11 04:06:58;;;;;;;53.00;27.30;;;-3.70;99.90;;;;;;4999477;28;20068;-58
2024/01/11 04:09:24;;;;;;;52.33;25.80;;;-3.70;99.90;;;;;;4969291;28;20082;-60
2024/01/11 04:11:50;;;;;;;47.27;25.67;;;-3.70;99.90;;;;;;4965938;28;20138;-60
2024/01/11 04:14:15;;;;;;;48.57;25.70;;;-3.70;99.90;;;;;;4979008;28;20044;-59
2024/01/11 04:16:42;;;;;;;50.87;27.50;;;-3.80;99.90;;;;;;4955915;28;20038;-59
2024/01/11 04:19:08;;;;;;;47.07;25.17;;;-3.80;99.90;;;;;;4966994;28;20042;-59
2024/01/11 04:21:34;;;;;;;49.70;25.97;;;-3.80;99.90;;;;;;4962906;28;20039;-57
2024/01/11 04:24:00;;;;;;;50.53;26.47;;;-3.80;99.90;;;;;;4979720;28;20049;-59
2024/01/11 04:26:26;;;;;;;51.87;27.23;;;-3.80;99.90;;;;;;4948839;28;20046;-59
2024/01/11 04:28:53;;;;;;;47.70;25.23;;;-3.80;99.90;;;;;;4959349;28;20090;-59
2024/01/11 04:31:19;;;;;;;51.20;26.43;;;-3.80;99.90;;;;;;4976682;28;20038;-58
2024/01/11 04:33:45;;;;;;;48.60;25.03;;;-3.80;99.90;;;;;;4966889;28;20125;-59
2024/01/11 04:36:12;;;;;;;51.97;27.23;;;-3.80;99.90;;;;;;4950641;28;20050;-59
2024/01/11 04:38:38;;;;;;;50.63;27.40;;;-3.80;99.90;;;;;;4981026;28;20113;-59
2024/01/11 04:41:11;;;;;;;49.83;26.77;;;-3.70;99.90;;;;;;4990955;28;20500;-59
2024/01/11 04:43:41;;;;;;;50.10;25.23;;;-3.70;99.90;;;;;;4954840;28;20042;-59
2024/01/11 04:46:17;;;;;;;48.20;24.07;;;-3.70;99.90;;;;;;4967577;28;20208;-59
2024/01/11 04:48:43;;;;;;;46.83;25.43;;;-3.60;99.90;;;;;;4966227;28;20047;-59
2024/01/11 04:51:09;;;;;;;50.73;27.93;;;-3.60;99.90;;;;;;4969753;28;20547;-60
2024/01/11 04:53:41;;;;;;;56.23;29.73;;;-3.60;99.90;;;;;;4950744;28;20121;-60
2024/01/11 04:56:09;;;;;;;53.07;26.40;;;-3.60;99.90;;;;;;4964131;28;20409;-59
2024/01/11 04:58:40;;;;;;;62.27;33.17;;;-3.50;99.90;;;;;;4969081;28;20050;-57
2024/01/11 05:01:06;;;;;;;69.80;34.97;;;-3.40;99.90;;;;;;4964843;28;20046;-60
2024/01/11 05:03:32;;;;;;;71.33;38.17;;;-3.40;99.90;;;;;;4965516;28;20050;-59
2024/01/11 05:05:58;;;;;;;58.43;30.93;;;-3.30;99.90;;;;;;4977796;28;20141;-59
2024/01/11 05:08:25;;;;;;;60.63;30.73;;;-3.30;99.90;;;;;;4949581;28;20050;-59
2024/01/11 05:10:51;;;;;;;54.23;28.50;;;-3.30;99.90;;;;;;4973032;28;20058;-60
2024/01/11 05:13:18;;;;;;;57.50;29.50;;;-3.20;99.90;;;;;;4986532;28;20041;-60
2024/01/11 05:15:44;;;;;;;54.27;28.73;;;-3.10;99.90;;;;;;4986162;28;20095;-59
2024/01/11 05:18:10;;;;;;;53.73;29.00;;;-3.10;99.90;;;;;;4970183;28;20129;-59
2024/01/11 05:20:36;;;;;;;59.03;29.73;;;-3.00;99.90;;;;;;4976546;28;20049;-58
2024/01/11 05:23:02;;;;;;;61.17;29.23;;;-2.90;99.90;;;;;;4983959;28;20388;-59
2024/01/11 05:25:31;;;;;;;55.90;28.73;;;-2.90;99.90;;;;;;4971015;28;20390;-59
2024/01/11 05:27:57;;;;;;;54.97;28.50;;;-2.80;99.90;;;;;;4968954;28;20038;-59
2024/01/11 05:30:22;;;;;;;62.97;29.80;;;-2.80;99.90;;;;;;4965013;28;20092;-59
2024/01/11 05:32:48;;;;;;;58.97;29.80;;;-2.70;99.90;;;;;;4979318;28;20035;-59
2024/01/11 05:35:14;;;;;;;53.77;28.43;;;-2.70;99.90;;;;;;4951452;28;20486;-59
2024/01/11 05:37:39;;;;;;;55.77;30.20;;;-2.60;99.90;;;;;;4955910;28;20142;-59
2024/01/11 05:40:06;;;;;;;55.43;29.27;;;-2.60;99.90;;;;;;4962291;28;20467;-60
2024/01/11 05:42:32;;;;;;;61.27;29.50;;;-2.60;99.90;;;;;;4968869;28;20050;-60
2024/01/11 05:44:57;;;;;;;60.23;29.43;;;-2.50;99.90;;;;;;4966471;28;20072;-61
2024/01/11 05:47:23;;;;;;;54.13;27.43;;;-2.50;99.90;;;;;;4980835;28;20046;-59
2024/01/11 05:49:49;;;;;;;59.87;29.97;;;-2.40;99.90;;;;;;4975292;28;20645;-59
2024/01/11 05:52:15;;;;;;;57.67;30.63;;;-2.40;99.90;;;;;;4963178;28;20440;-60
2024/01/11 05:54:41;;;;;;;53.43;27.60;;;-2.40;99.90;;;;;;4966240;28;20047;-58
2024/01/11 05:57:07;;;;;;;55.17;29.00;;;-2.30;99.90;;;;;;4965321;28;20045;-59
2024/01/11 05:59:33;;;;;;;52.97;27.57;;;-2.30;99.90;;;;;;4981659;28;20077;-59
2024/01/11 06:02:00;;;;;;;52.83;29.33;;;-2.30;99.90;;;;;;4965210;28;20042;-59
2024/01/11 06:04:26;;;;;;;51.57;27.97;;;-2.30;99.90;;;;;;4981608;28;20543;-59
2024/01/11 06:06:52;;;;;;;58.37;31.77;;;-2.20;99.90;;;;;;4969036;28;20200;-59
2024/01/11 06:09:18;;;;;;;49.33;26.90;;;-2.20;99.90;;;;;;4958647;28;20481;-59
2024/01/11 06:11:43;;;;;;;56.53;29.60;;;-2.20;99.90;;;;;;4955706;28;20053;-60
2024/01/11 06:14:09;;;;;;;60.63;28.77;;;-2.20;99.90;;;;;;4965779;28;20038;-60
2024/01/11 06:16:35;;;;;;;51.47;27.77;;;-2.10;99.90;;;;;;4953428;28;20076;-59
2024/01/11 06:19:01;;;;;;;54.93;28.07;;;-2.10;99.90;;;;;;4963967;28;20060;-59
2024/01/11 06:21:26;;;;;;;54.50;30.07;;;-2.10;99.90;;;;;;4953851;28;20042;-60
2024/01/11 06:23:52;;;;;;;53.33;28.60;;;-2.00;99.90;;;;;;4980089;28;20618;-60
2024/01/11 06:26:18;;;;;;;61.50;30.57;;;-2.00;99.90;;;;;;4967714;28;20610;-59
2024/01/11 06:28:44;;;;;;;58.63;31.07;;;-2.00;99.90;;;;;;4943798;28;20528;-59
2024/01/11 06:31:10;;;;;;;52.20;28.83;;;-2.00;99.90;;;;;;4973499;28;20053;-59
2024/01/11 06:33:38;;;;;;;53.07;29.30;;;-1.90;99.90;;;;;;4967046;28;20065;-60
2024/01/11 06:36:07;;;;;;;60.43;29.93;;;-1.90;99.90;;;;;;4965703;28;20045;-59
2024/01/11 06:38:33;;;;;;;55.90;30.30;;;-1.90;99.90;;;;;;4963600;28;20100;-60
2024/01/11 06:40:59;;;;;;;55.10;28.80;;;-1.90;99.90;;;;;;4966645;28;20061;-60
2024/01/11 06:43:25;;;;;;;57.80;28.50;;;-1.90;99.90;;;;;;4952890;28;20152;-60
2024/01/11 06:45:52;;;;;;;59.03;30.13;;;-1.80;99.90;;;;;;4966551;28;20141;-60
2024/01/11 06:48:17;;;;;;;50.83;28.20;;;-1.80;99.90;;;;;;4964739;28;20133;-60
2024/01/11 06:50:43;;;;;;;62.00;30.50;;;-1.80;99.90;;;;;;4966818;28;20117;-60
2024/01/11 06:53:09;;;;;;;61.53;31.37;;;-1.70;99.90;;;;;;4966986;28;20408;-60
2024/01/11 06:55:38;;;;;;;59.00;29.67;;;-1.70;99.90;;;;;;4964568;28;20060;-60
2024/01/11 06:58:04;;;;;;;53.50;28.87;;;-1.70;99.90;;;;;;4950891;28;20034;-60
2024/01/11 07:00:29;;;;;;;57.90;30.77;;;-1.70;99.90;;;;;;4982105;28;20258;-60
2024/01/11 07:02:55;;;;;;;58.10;31.30;;;-1.70;99.90;;;;;;4976064;28;20494;-60
2024/01/11 07:05:21;;;;;;;51.07;28.17;;;-1.70;99.90;;;;;;4980202;28;20492;-60
2024/01/11 07:07:47;;;;;;;56.87;27.97;;;-1.60;99.90;;;;;;4980260;28;20488;-59
2024/01/11 07:10:12;;;;;;;51.43;27.63;;;-1.60;99.90;;;;;;4962941;28;20044;-59
2024/01/11 07:12:40;;;;;;;58.53;30.50;;;-1.60;99.90;;;;;;4960361;28;20034;-59
2024/01/11 07:15:07;;;;;;;58.57;30.47;;;-1.60;99.90;;;;;;4958343;28;20509;-60
2024/01/11 07:17:33;;;;;;;62.73;31.70;;;-1.60;99.90;;;;;;4965180;28;20053;-59
2024/01/11 07:19:59;;;;;;;59.73;31.67;;;-1.60;99.90;;;;;;4973849;28;20042;-59
2024/01/11 07:22:25;;;;;;;60.13;31.03;;;-1.50;99.90;;;;;;4967789;28;20049;-60
2024/01/11 07:24:52;;;;;;;64.07;32.53;;;-1.50;99.90;;;;;;4963756;28;20137;-60
2024/01/11 07:27:18;;;;;;;57.20;29.80;;;-1.50;99.90;;;;;;4964468;28;20199;-59
2024/01/11 07:29:43;;;;;;;57.00;30.43;;;-1.50;99.90;;;;;;4935230;28;20581;-60
2024/01/11 07:32:09;;;;;;;55.30;30.00;;;-1.50;99.90;;;;;;4962636;28;20050;-60
2024/01/11 07:34:36;;;;;;;57.90;30.87;;;-1.40;99.90;;;;;;4965608;28;20413;-61
2024/01/11 07:37:02;;;;;;;54.37;27.73;;;-1.40;99.90;;;;;;4967189;28;20039;-60
2024/01/11 07:39:30;;;;;;;58.23;31.10;;;-1.40;99.90;;;;;;4977030;28;20494;-60
2024/01/11 07:41:56;;;;;;;56.40;28.90;;;-1.30;99.90;;;;;;4960731;28;20046;-60
2024/01/11 07:44:22;;;;;;;56.47;29.83;;;-1.30;99.90;;;;;;4962200;28;20053;-60
2024/01/11 07:46:48;;;;;;;55.43;30.40;;;-1.30;99.90;;;;;;4966350;28;21972;-60
2024/01/11 07:49:13;;;;;;;57.83;30.57;;;-1.30;99.90;;;;;;4961691;28;20041;-60
2024/01/11 07:51:39;;;;;;;56.57;30.03;;;-1.20;99.90;;;;;;4953792;28;20308;-60
2024/01/11 07:54:05;;;;;;;52.57;29.27;;;-1.20;99.90;;;;;;4974016;28;20512;-59
2024/01/11 07:56:31;;;;;;;54.63;29.10;;;-1.20;99.90;;;;;;4960491;28;20039;-60
2024/01/11 07:58:56;;;;;;;53.53;28.63;;;-1.20;99.90;;;;;;4958591;28;20050;-60
2024/01/11 08:01:22;;;;;;;56.13;29.80;;;-1.10;99.90;;;;;;4960079;28;20066;-60
2024/01/11 08:03:51;;;;;;;56.03;29.53;;;-1.10;99.90;;;;;;4993024;28;20139;-60
2024/01/11 08:06:17;;;;;;;53.10;29.00;;;-1.10;99.90;;;;;;4967248;28;20049;-60
2024/01/11 08:08:43;;;;;;;60.60;30.37;;;-1.00;99.90;;;;;;4962640;28;20058;-60
2024/01/11 08:11:10;;;;;;;57.87;32.33;;;-1.00;99.90;;;;;;4954590;28;20043;-60
2024/01/11 08:13:37;;;;;;;56.63;31.67;;;-1.00;99.90;;;;;;4976514;28;20299;-60
2024/01/11 08:16:04;;;;;;;52.47;28.83;;;-0.90;99.90;;;;;;4961511;28;20038;-60
2024/01/11 08:18:33;;;;;;;56.63;30.67;;;-0.90;99.90;;;;;;4965633;28;20042;-60
2024/01/11 08:20:59;;;;;;;58.07;31.87;;;-0.90;99.90;;;;;;4970917;28;20039;-60
2024/01/11 08:23:24;;;;;;;58.37;31.10;;;-0.90;99.90;;;;;;4970607;28;20046;-59
2024/01/11 08:25:50;;;;;;;60.80;29.10;;;-0.90;99.90;;;;;;4980301;28;20111;-58
2024/01/11 08:28:16;;;;;;;54.30;29.67;;;-0.80;99.90;;;;;;4949787;28;20504;-60
2024/01/11 08:30:42;;;;;;;52.23;29.50;;;-0.80;99.90;;;;;;4965274;28;20034;-61
2024/01/11 08:33:08;;;;;;;54.20;29.27;;;-0.80;99.90;;;;;;4977684;28;20065;-60
2024/01/11 08:35:35;;;;;;;57.40;31.97;;;-0.70;99.90;;;;;;4981312;28;20046;-60
2024/01/11 08:38:01;;;;;;;56.30;30.40;;;-0.70;99.90;;;;;;4964502;28;20047;-60
2024/01/11 08:40:26;;;;;;;53.47;29.63;;;-0.60;99.90;;;;;;4977572;28;20041;-60
2024/01/11 08:42:52;;;;;;;51.60;29.93;;;-0.60;99.90;;;;;;4952564;28;20046;-60
2024/01/11 08:45:18;;;;;;;51.20;28.50;;;-0.60;99.90;;;;;;4985042;28;20038;-60
2024/01/11 08:47:45;;;;;;;50.93;27.67;;;-0.60;99.90;;;;;;4975864;28;20540;-60
2024/01/11 08:50:15;;;;;;;43.20;25.77;;;-0.50;99.90;;;;;;4971196;28;20581;-59
2024/01/11 08:52:41;;;;;;;51.90;29.03;;;-0.50;99.90;;;;;;4964866;28;20103;-60
2024/01/11 08:55:08;;;;;;;49.30;27.23;;;-0.40;99.90;;;;;;4984899;28;21298;-59
2024/01/11 08:57:35;;;;;;;49.73;29.00;;;-0.40;99.90;;;;;;4970236;28;20081;-59
2024/01/11 09:00:07;;;;;;;58.90;30.90;;;-0.30;99.90;;;;;;4980318;28;20049;-61
2024/01/11 09:02:33;;;;;;;79.20;43.43;;;-0.30;99.90;;;;;;4956901;28;20516;-58
2024/01/11 09:04:59;;;;;;;70.10;37.58;;;-0.30;99.90;;;;;;4958346;28;20046;-58
2024/01/11 09:07:25;;;;;;;62.00;34.87;;;-0.30;99.90;;;;;;4969079;28;20050;-60
2024/01/11 09:09:50;;;;;;;57.67;32.33;;;-0.20;99.90;;;;;;4970031;28;20740;-62
2024/01/11 09:12:16;;;;;;;55.07;30.07;;;-0.20;99.90;;;;;;4980781;28;20050;-60
2024/01/11 09:14:42;;;;;;;47.85;27.75;;;-0.10;99.90;;;;;;4972352;28;20035;-61
2024/01/11 09:17:08;;;;;;;49.87;29.20;;;-0.10;99.90;;;;;;4970004;28;20397;-60
2024/01/11 09:19:34;;;;;;;52.00;28.00;;;-0.10;99.90;;;;;;4976447;28;20161;-60
2024/01/11 09:21:59;;;;;;;49.40;29.33;;;0.00;99.90;;;;;;4980695;28;20489;-60
2024/01/11 09:24:25;;;;;;;46.70;26.20;;;0.10;99.90;;;;;;4974806;28;20485;-60
2024/01/11 09:26:51;;;;;;;44.77;25.53;;;0.10;99.90;;;;;;4977508;28;20051;-60
2024/01/11 09:29:17;;;;;;;48.53;26.67;;;0.10;99.90;;;;;;4953408;28;20429;-60
2024/01/11 09:31:43;;;;;;;41.73;24.90;;;0.20;99.90;;;;;;4991132;28;20046;-60
2024/01/11 09:34:08;;;;;;;44.55;25.73;;;0.20;99.90;;;;;;4972671;28;20103;-60
2024/01/11 09:36:34;;;;;;;47.37;27.17;;;0.30;99.90;;;;;;4972445;28;20038;-60
2024/01/11 09:39:00;;;;;;;50.07;27.93;;;0.30;99.90;;;;;;4949051;28;20402;-60
2024/01/11 09:41:27;;;;;;;46.88;27.48;;;0.40;99.90;;;;;;4983525;28;20083;-61
2024/01/11 09:43:54;;;;;;;46.60;27.10;;;0.40;99.90;;;;;;4951670;28;20072;-61
2024/01/11 09:46:21;;;;;;;45.58;25.08;;;0.50;99.90;;;;;;4958335;28;20501;-60
2024/01/11 09:48:48;;;;;;;44.90;25.20;;;0.50;99.90;;;;;;4970850;28;20050;-60
2024/01/11 09:51:14;;;;;;;44.05;25.13;;;0.50;99.90;;;;;;4952931;28;20046;-61
2024/01/11 09:53:42;;;;;;;41.22;23.42;;;0.60;99.90;;;;;;4969231;28;20062;-60
2024/01/11 09:56:09;;;;;;;44.67;25.27;;;0.60;99.90;;;;;;4980386;28;20046;-60
2024/01/11 09:58:39;;;;;;;42.85;25.20;;;0.70;99.90;;;;;;4967787;28;20042;-60
2024/01/11 10:01:10;;;;;;;43.70;24.38;;;0.70;99.90;;;;;;4981811;28;20401;-60
2024/01/11 10:03:36;;;;;;;43.47;25.42;;;0.80;99.90;;;;;;4969022;28;20046;-59
2024/01/11 10:06:03;;;;;;;41.67;24.75;;;0.80;99.90;;;;;;4970293;28;20100;-61
2024/01/11 10:08:29;;;;;;;40.38;24.40;;;0.80;99.90;;;;;;4962193;28;20046;-61
2024/01/11 10:10:55;;;;;;;41.25;24.98;;;0.90;99.90;;;;;;4940756;28;20070;-61
2024/01/11 10:13:32;;;;;;;43.38;27.42;;;0.90;99.90;;;;;;4955587;28;20580;-60
2024/01/11 10:16:13;;;;;;;41.30;26.13;;;1.00;99.90;;;;;;4944236;28;20098;-60
2024/01/11 10:18:39;;;;;;;43.42;25.13;;;1.00;99.90;;;;;;4965523;28;20440;-60
2024/01/11 10:21:05;;;;;;;41.08;25.23;;;1.00;99.90;;;;;;4966211;28;20040;-60
2024/01/11 10:23:34;;;;;;;37.28;22.65;;;1.00;99.90;;;;;;4986062;28;20050;-61
2024/01/11 10:26:00;;;;;;;37.08;22.23;;;1.10;99.90;;;;;;4985196;28;20043;-60
2024/01/11 10:28:26;;;;;;;40.58;24.35;;;1.10;99.90;;;;;;4979503;28;20655;-60
2024/01/11 10:30:55;;;;;;;43.45;24.30;;;1.10;99.90;;;;;;4969482;28;20042;-60
2024/01/11 10:33:22;;;;;;;38.08;23.10;;;1.10;99.90;;;;;;4941541;28;20038;-60
2024/01/11 10:35:51;;;;;;;45.53;25.52;;;1.10;99.90;;;;;;4971211;28;20133;-60
2024/01/11 10:38:17;;;;;;;44.75;27.40;;;1.20;99.90;;;;;;4989085;28;20034;-60
2024/01/11 10:40:44;;;;;;;42.72;26.02;;;1.20;99.90;;;;;;4947627;28;20048;-60
2024/01/11 10:43:15;;;;;;;47.00;27.23;;;1.20;99.90;;;;;;4973726;28;20378;-60
2024/01/11 10:45:42;;;;;;;46.70;27.33;;;1.30;99.90;;;;;;4969557;28;20485;-60
2024/01/11 10:48:13;;;;;;;39.03;23.15;;;1.30;99.90;;;;;;4967772;28;20049;-60
2024/01/11 10:50:43;;;;;;;38.95;22.83;;;1.30;99.90;;;;;;4981813;28;20046;-60
2024/01/11 10:53:33;;;;;;;40.47;24.23;;;1.30;99.90;;;;;;4968742;28;20037;-59
2024/01/11 10:56:00;;;;;;;42.05;23.88;;;1.40;99.90;;;;;;4965414;28;20042;-60
2024/01/11 10:58:27;;;;;;;50.30;26.13;;;1.40;99.90;;;;;;4960550;28;20135;-60
2024/01/11 11:00:55;;;;;;;34.97;22.13;;;1.40;99.90;;;;;;4981900;28;20115;-60
2024/01/11 11:03:23;;;;;;;37.33;22.23;;;1.40;99.90;;;;;;4956718;28;20386;-61
2024/01/11 11:05:51;;;;;;;41.72;24.30;;;1.50;99.90;;;;;;4992377;28;20085;-60
2024/01/11 11:08:17;;;;;;;37.05;21.80;;;1.50;99.90;;;;;;4948420;28;20046;-60
2024/01/11 11:10:45;;;;;;;34.65;20.52;;;1.50;99.90;;;;;;4985116;28;20042;-60
2024/01/11 11:13:15;;;;;;;35.90;22.15;;;1.60;99.90;;;;;;4974131;28;20127;-59
2024/01/11 11:15:45;;;;;;;37.08;21.95;;;1.60;99.90;;;;;;4974979;28;20046;-61
2024/01/11 11:18:13;;;;;;;35.75;21.35;;;1.60;99.90;;;;;;4974103;28;20053;-61
2024/01/11 11:20:42;;;;;;;36.22;21.65;;;1.70;99.90;;;;;;4983080;28;20042;-60
2024/01/11 11:23:10;;;;;;;41.53;25.58;;;1.70;99.90;;;;;;4972034;28;20413;-60
2024/01/11 11:25:36;;;;;;;39.40;24.02;;;1.70;99.90;;;;;;4972816;28;20042;-60
2024/01/11 11:28:04;;;;;;;39.47;23.77;;;1.70;99.90;;;;;;4980211;28;20037;-61
2024/01/11 11:30:51;;;;;;;37.28;23.33;;;1.80;99.90;;;;;;4955101;28;20135;-61
2024/01/11 11:33:22;;;;;;;44.53;26.02;;;1.90;99.90;;;;;;4973410;28;20524;-61
2024/01/11 11:35:56;;;;;;;36.83;23.23;;;1.90;99.90;;;;;;4954676;28;20046;-58
2024/01/11 11:38:25;;;;;;;35.58;21.42;;;1.90;99.90;;;;;;4971446;28;20138;-60
2024/01/11 11:40:52;;;;;;;37.45;22.45;;;1.90;99.90;;;;;;4992493;28;20053;-61
2024/01/11 11:43:20;;;;;;;38.47;20.58;;;1.90;99.90;;;;;;4965605;28;20520;-60
2024/01/11 11:45:48;;;;;;;45.33;24.42;;;2.00;99.90;;;;;;4964565;28;20050;-60
2024/01/11 11:48:29;;;;;;;39.42;24.83;;;2.00;99.90;;;;;;4953856;28;20050;-61
2024/01/11 11:51:11;;;;;;;32.58;18.98;;;2.00;99.90;;;;;;4979642;28;20039;-62
2024/01/11 11:53:39;;;;;;;32.60;20.02;;;2.10;99.90;;;;;;4993640;28;20046;-61
2024/01/11 11:56:06;;;;;;;36.33;23.25;;;2.20;99.90;;;;;;5037961;28;20043;-62
2024/01/11 11:58:33;;;;;;;33.15;20.90;;;2.20;99.90;;;;;;4961424;28;20049;-62
2024/01/11 12:01:00;;;;;;;32.78;20.10;;;2.10;99.90;;;;;;4957757;28;20121;-62
2024/01/11 12:03:37;;;;;;;34.47;20.40;;;2.20;99.90;;;;;;4982836;28;20109;-62
2024/01/11 12:06:03;;;;;;;30.17;19.08;;;2.20;99.90;;;;;;4975637;28;20042;-61
2024/01/11 12:08:30;;;;;;;33.45;19.80;;;2.20;99.90;;;;;;4976596;28;20544;-61
2024/01/11 12:10:56;;;;;;;32.45;19.02;;;2.20;99.90;;;;;;4960665;28;20042;-62
2024/01/11 12:13:23;;;;;;;28.42;18.08;;;2.30;99.90;;;;;;4972879;28;20073;-62
2024/01/11 12:15:49;;;;;;;29.00;16.63;;;2.30;99.90;;;;;;4975741;28;20134;-61
2024/01/11 12:18:15;;;;;;;30.90;17.95;;;2.30;99.90;;;;;;4980829;28;20141;-61
2024/01/11 12:20:41;;;;;;;29.35;18.23;;;2.30;99.90;;;;;;4948341;28;20125;-61
2024/01/11 12:23:07;;;;;;;36.50;21.05;;;2.40;99.90;;;;;;4983476;28;20469;-61
2024/01/11 12:25:33;;;;;;;32.05;18.35;;;2.40;99.90;;;;;;4965874;28;20421;-61